Saint Gertrude, North Dakota
Current Conditions -  °F | °C
As of 11:15 AM on Monday 24 Nov 2014 (Local Time) from KY19 Reporting Station
Clear Clear  
Wind Chill:   Ceiling: Unl
Heat Index: 19°   Visibility: 10mi
Dew Point:   Wind: 15mph
Humidity: 54%   Direction: 330°NNW
Pressure: 29.91"   Gusts: NA
Location:  46.3317°N, 101.236°W
Report Text: KY19 241815Z AUTO 33013KT 10SM CLR M07/M15 A2991 RMK AO2
Loading
Personal Weather Stations






























Interactive Weather Map New forecast layout! Learn more

10-Day Weather Forecast

Advertisements
Track Severe Weather on mobile